createdAt,value
2023-01-18T00:00:52.653Z,-2.23
2023-01-18T00:01:54.707Z,-2.25
2023-01-18T00:03:03.276Z,-2.25
2023-01-18T00:04:05.305Z,-2.22
2023-01-18T00:05:11.017Z,-2.20
2023-01-18T00:06:13.294Z,-2.23
2023-01-18T00:07:18.448Z,-2.24
2023-01-18T00:08:20.566Z,-2.26
2023-01-18T00:09:25.759Z,-2.25
2023-01-18T00:10:27.859Z,-2.24
2023-01-18T00:11:32.805Z,-2.22
2023-01-18T00:12:35.066Z,-2.21
2023-01-18T00:13:40.496Z,-2.18
2023-01-18T00:14:42.464Z,-2.14
2023-01-18T00:15:47.349Z,-2.14
2023-01-18T00:16:49.332Z,-2.08
2023-01-18T00:17:54.629Z,-2.07
2023-01-18T00:19:00.202Z,-2.06
2023-01-18T00:20:06.277Z,-2.05
2023-01-18T00:21:10.198Z,-2.07
2023-01-18T00:22:16.957Z,-2.08
2023-01-18T00:23:19.243Z,-2.07
2023-01-18T00:24:24.295Z,-2.08
2023-01-18T00:25:26.450Z,-2.11
2023-01-18T00:26:31.329Z,-2.09
2023-01-18T00:27:33.324Z,-2.06
2023-01-18T00:28:38.602Z,-2.06
2023-01-18T00:29:40.657Z,-2.05
2023-01-18T00:30:45.396Z,-2.05
2023-01-18T00:31:47.508Z,-2.08
2023-01-18T00:32:56.068Z,-2.07
2023-01-18T00:34:01.071Z,-2.07
2023-01-18T00:35:07.860Z,-2.07
2023-01-18T00:36:10.638Z,-2.07
2023-01-18T00:37:15.573Z,-2.09
2023-01-18T00:38:19.051Z,-2.10
2023-01-18T00:39:24.178Z,-2.09
2023-01-18T00:40:29.016Z,-2.10
2023-01-18T00:41:36.179Z,-2.10
2023-01-18T00:42:55.709Z,-2.08
2023-01-18T00:43:58.335Z,-2.07
2023-01-18T00:45:00.675Z,-2.06
2023-01-18T00:46:07.328Z,-2.07
2023-01-18T00:47:09.665Z,-2.06
2023-01-18T00:48:14.401Z,-2.07
2023-01-18T00:49:19.381Z,-2.08
2023-01-18T00:50:24.100Z,-2.08
2023-01-18T00:51:26.235Z,-2.11
2023-01-18T00:52:31.851Z,-2.10
2023-01-18T00:53:34.116Z,-2.12
2023-01-18T00:54:39.302Z,-2.10
2023-01-18T00:55:41.278Z,-2.08
2023-01-18T00:56:46.176Z,-2.08
2023-01-18T00:57:48.907Z,-2.07
2023-01-18T00:58:54.021Z,-2.05
2023-01-18T00:59:56.051Z,-2.03
2023-01-18T01:01:02.254Z,-2.00
2023-01-18T01:02:04.727Z,-2.00
2023-01-18T01:03:10.286Z,-1.99
2023-01-18T01:04:27.350Z,-2.04
2023-01-18T01:05:47.191Z,-2.02
2023-01-18T01:06:49.284Z,-2.00
2023-01-18T01:07:54.105Z,-1.99
2023-01-18T01:08:56.110Z,-1.97
2023-01-18T01:10:11.127Z,-1.97
2023-01-18T01:11:22.136Z,-1.94
2023-01-18T01:12:39.438Z,-1.93
2023-01-18T01:13:56.478Z,-1.93
2023-01-18T01:15:13.555Z,-1.93
2023-01-18T01:16:30.762Z,-1.93
2023-01-18T01:17:50.031Z,-1.93
2023-01-18T01:19:07.309Z,-1.90
2023-01-18T01:20:26.711Z,-1.92
2023-01-18T01:21:49.009Z,-1.98
2023-01-18T01:23:06.239Z,-2.06
2023-01-18T01:24:23.815Z,-2.01
2023-01-18T01:25:41.492Z,-2.07
2023-01-18T01:26:46.301Z,-2.08
2023-01-18T01:27:48.467Z,-2.08
2023-01-18T01:28:54.611Z,-2.08
2023-01-18T01:29:56.803Z,-2.08
2023-01-18T01:31:02.463Z,-2.08
2023-01-18T01:32:05.613Z,-2.07
2023-01-18T01:33:10.332Z,-2.08
2023-01-18T01:34:21.646Z,-2.08
2023-01-18T01:35:26.436Z,-2.08
2023-01-18T01:36:31.345Z,-2.12
2023-01-18T01:37:36.800Z,-2.10
2023-01-18T01:38:41.546Z,-2.11
2023-01-18T01:39:46.287Z,-2.13
2023-01-18T01:40:56.188Z,-2.14
2023-01-18T01:42:01.528Z,-2.15
2023-01-18T01:43:03.548Z,-2.14
2023-01-18T01:44:38.225Z,-2.14
2023-01-18T01:45:40.580Z,-2.14
2023-01-18T01:46:53.991Z,-2.16
2023-01-18T01:47:57.666Z,-2.15
2023-01-18T01:49:08.182Z,-2.17
2023-01-18T01:50:18.714Z,-2.18
2023-01-18T01:51:23.667Z,-2.18
2023-01-18T01:52:33.788Z,-2.18
2023-01-18T01:53:38.686Z,-2.18
2023-01-18T01:54:45.165Z,-2.19
2023-01-18T01:55:50.480Z,-2.19
2023-01-18T01:56:56.585Z,-2.13
2023-01-18T01:58:07.068Z,-2.07
2023-01-18T01:59:10.390Z,-2.07
2023-01-18T02:00:19.693Z,-2.10
2023-01-18T02:01:21.790Z,-1.95
2023-01-18T02:02:27.953Z,-1.99
2023-01-18T02:03:33.043Z,-1.99
2023-01-18T02:04:38.611Z,-2.05
2023-01-18T02:05:43.949Z,-2.15
2023-01-18T02:06:48.908Z,-2.15
2023-01-18T02:07:54.732Z,-2.08
2023-01-18T02:08:59.505Z,-2.05
2023-01-18T02:10:03.300Z,-2.08
2023-01-18T02:11:08.260Z,-2.11
2023-01-18T02:12:10.570Z,-2.04
2023-01-18T02:13:15.547Z,-2.04
2023-01-18T02:14:18.728Z,-1.97
2023-01-18T02:15:25.625Z,-1.88
2023-01-18T02:16:44.184Z,-2.03
2023-01-18T02:18:08.555Z,-2.04
2023-01-18T02:19:32.389Z,-2.06
2023-01-18T02:21:04.435Z,-2.13
2023-01-18T02:22:19.112Z,-2.15
2023-01-18T02:23:32.752Z,-2.15
2023-01-18T02:25:04.084Z,-2.18
2023-01-18T02:26:46.685Z,-2.21
2023-01-18T02:27:58.844Z,-2.21
2023-01-18T02:29:14.278Z,-2.22
2023-01-18T02:30:26.541Z,-2.23
2023-01-18T02:31:34.610Z,-2.25
2023-01-18T02:32:50.828Z,-2.23
2023-01-18T02:34:02.961Z,-2.24
2023-01-18T02:35:12.153Z,-2.20
2023-01-18T02:36:28.036Z,-2.18
2023-01-18T02:37:43.734Z,-2.19
2023-01-18T02:38:50.153Z,-2.16
2023-01-18T02:40:05.336Z,-2.09
2023-01-18T02:41:23.732Z,-2.07
2023-01-18T02:42:43.868Z,-2.15
2023-01-18T02:44:02.910Z,-2.18
2023-01-18T02:45:33.715Z,-2.19
2023-01-18T02:46:40.683Z,-2.16
2023-01-18T02:47:46.514Z,-2.08
2023-01-18T02:48:52.464Z,-2.14
2023-01-18T02:49:56.728Z,-2.14
2023-01-18T02:51:04.938Z,-2.16
2023-01-18T02:52:08.646Z,-2.16
2023-01-18T02:53:16.289Z,-2.18
2023-01-18T02:54:24.672Z,-2.22
2023-01-18T02:55:41.318Z,-2.20
2023-01-18T02:56:52.417Z,-2.21
2023-01-18T02:57:57.676Z,-2.26
2023-01-18T02:59:08.924Z,-2.27
2023-01-18T03:00:19.251Z,-2.29
2023-01-18T03:01:29.285Z,-2.31
2023-01-18T03:02:31.370Z,-2.30
2023-01-18T03:03:37.702Z,-2.31
2023-01-18T03:04:45.082Z,-2.31
2023-01-18T03:05:52.467Z,-2.27
2023-01-18T03:07:01.985Z,-2.31
2023-01-18T03:08:11.637Z,-2.32
2023-01-18T03:09:21.522Z,-2.33
2023-01-18T03:10:28.415Z,-2.34
2023-01-18T03:11:43.090Z,-2.22
2023-01-18T03:12:56.867Z,-2.25
2023-01-18T03:14:11.003Z,-2.28
2023-01-18T03:15:23.233Z,-2.31
2023-01-18T03:16:39.710Z,-2.31
2023-01-18T03:17:46.653Z,-2.32
2023-01-18T03:19:05.628Z,-2.32
2023-01-18T03:20:12.878Z,-2.30
2023-01-18T03:21:16.224Z,-2.32
2023-01-18T03:22:42.460Z,-2.32
2023-01-18T03:23:45.937Z,-2.15
2023-01-18T03:24:48.571Z,-2.19
2023-01-18T03:25:57.415Z,-2.17
2023-01-18T03:27:15.128Z,-2.16
2023-01-18T03:28:36.477Z,-2.20
2023-01-18T03:29:53.971Z,-2.17
2023-01-18T03:31:19.062Z,-2.11
2023-01-18T03:32:41.654Z,-2.08
2023-01-18T03:33:50.837Z,-2.16
2023-01-18T03:34:58.243Z,-2.14
2023-01-18T03:36:05.178Z,-2.11
2023-01-18T03:37:14.431Z,-2.16
2023-01-18T03:38:18.527Z,-2.15
2023-01-18T03:39:28.855Z,-2.10
2023-01-18T03:40:31.339Z,-2.10
2023-01-18T03:41:41.648Z,-2.17
2023-01-18T03:42:53.698Z,-2.12
2023-01-18T03:44:02.908Z,-2.14
2023-01-18T03:45:09.916Z,-2.11
2023-01-18T03:46:20.397Z,-2.10
2023-01-18T03:47:22.555Z,-2.10
2023-01-18T03:48:27.985Z,-2.08
2023-01-18T03:49:35.964Z,-2.06
2023-01-18T03:50:48.808Z,-2.06
2023-01-18T03:52:03.725Z,-1.98
2023-01-18T03:53:13.069Z,-2.01
2023-01-18T03:54:25.097Z,-1.96
2023-01-18T03:55:34.940Z,-2.01
2023-01-18T03:56:46.526Z,-1.95
2023-01-18T03:57:53.212Z,-1.97
2023-01-18T03:58:59.571Z,-1.93
2023-01-18T04:00:07.100Z,-1.98
2023-01-18T04:01:10.020Z,-2.03
2023-01-18T04:02:20.737Z,-2.04
2023-01-18T04:03:25.394Z,-2.06
2023-01-18T04:04:30.230Z,-2.10
2023-01-18T04:05:32.632Z,-2.07
2023-01-18T04:06:38.145Z,-2.10
2023-01-18T04:07:40.367Z,-2.14
2023-01-18T04:08:45.137Z,-2.18
2023-01-18T04:09:50.027Z,-2.16
2023-01-18T04:10:52.094Z,-2.15
2023-01-18T04:11:57.324Z,-2.05
2023-01-18T04:13:00.082Z,-1.97
2023-01-18T04:14:05.456Z,-1.92
2023-01-18T04:15:08.878Z,-1.93
2023-01-18T04:16:14.055Z,-1.94
2023-01-18T04:17:19.563Z,-1.92
2023-01-18T04:18:26.681Z,-1.94
2023-01-18T04:19:28.661Z,-2.08
2023-01-18T04:20:33.857Z,-2.10
2023-01-18T04:21:38.744Z,-2.10
2023-01-18T04:22:43.664Z,-2.17
2023-01-18T04:23:45.762Z,-2.09
2023-01-18T04:24:51.361Z,-2.11
2023-01-18T04:25:53.620Z,-2.08
2023-01-18T04:26:58.658Z,-2.04
2023-01-18T04:28:00.717Z,-2.04
2023-01-18T04:29:05.912Z,-2.06
2023-01-18T04:30:11.858Z,-1.97
2023-01-18T04:31:17.151Z,-2.09
2023-01-18T04:32:22.101Z,-2.19
2023-01-18T04:33:30.312Z,-2.12
2023-01-18T04:34:32.516Z,-2.19
2023-01-18T04:35:37.753Z,-2.22
2023-01-18T04:36:39.971Z,-2.21
2023-01-18T04:37:45.066Z,-2.16
2023-01-18T04:38:47.377Z,-2.23
2023-01-18T04:39:52.357Z,-2.13
2023-01-18T04:40:54.615Z,-2.12
2023-01-18T04:42:01.013Z,-2.03
2023-01-18T04:43:03.115Z,-2.13
2023-01-18T04:44:11.559Z,-2.12
2023-01-18T04:45:14.289Z,-2.09
2023-01-18T04:46:19.345Z,-2.07
2023-01-18T04:47:26.091Z,-2.07
2023-01-18T04:48:31.334Z,-2.04
2023-01-18T04:49:33.403Z,-2.08
2023-01-18T04:50:38.374Z,-2.09
2023-01-18T04:51:40.493Z,-2.03
2023-01-18T04:52:45.260Z,-2.06
2023-01-18T04:53:48.223Z,-2.05
2023-01-18T04:54:53.154Z,-1.94
2023-01-18T04:55:55.174Z,-2.00
2023-01-18T04:57:00.227Z,-2.06
2023-01-18T04:58:02.272Z,-2.15
2023-01-18T04:59:09.425Z,-2.10
2023-01-18T05:00:14.662Z,-2.02
2023-01-18T05:01:21.516Z,-2.06
2023-01-18T05:02:27.573Z,-2.10
2023-01-18T05:03:38.940Z,-2.09
2023-01-18T05:04:45.019Z,-2.15
2023-01-18T05:05:47.304Z,-2.13
2023-01-18T05:06:52.366Z,-2.22
2023-01-18T05:07:54.633Z,-2.21
2023-01-18T05:09:00.789Z,-2.11
2023-01-18T05:10:04.165Z,-2.10
2023-01-18T05:11:11.017Z,-2.19
2023-01-18T05:12:16.324Z,-2.18
2023-01-18T05:13:18.349Z,-2.15
2023-01-18T05:14:26.851Z,-2.17
2023-01-18T05:15:28.924Z,-2.20
2023-01-18T05:16:33.756Z,-2.16
2023-01-18T05:17:39.196Z,-2.18
2023-01-18T05:18:44.113Z,-2.18
2023-01-18T05:19:46.917Z,-2.23
2023-01-18T05:20:52.092Z,-2.18
2023-01-18T05:21:56.971Z,-2.18
2023-01-18T05:23:10.765Z,-2.23
2023-01-18T05:24:15.672Z,-2.17
2023-01-18T05:25:22.895Z,-2.16
2023-01-18T05:26:25.212Z,-2.09
2023-01-18T05:27:32.010Z,-2.05
2023-01-18T05:28:34.250Z,-2.12
2023-01-18T05:29:39.415Z,-2.15
2023-01-18T05:30:49.577Z,-2.21
2023-01-18T05:31:52.906Z,-2.15
2023-01-18T05:33:00.952Z,-2.09
2023-01-18T05:34:03.326Z,-2.09
2023-01-18T05:35:09.567Z,-2.10
2023-01-18T05:36:11.897Z,-2.13
2023-01-18T05:37:20.785Z,-2.02
2023-01-18T05:38:26.262Z,-1.95
2023-01-18T05:39:28.395Z,-2.04
2023-01-18T05:40:33.334Z,-2.03
2023-01-18T05:41:35.722Z,-2.09
2023-01-18T05:42:40.787Z,-2.01
2023-01-18T05:43:42.771Z,-2.08
2023-01-18T05:44:52.933Z,-2.03
2023-01-18T05:45:55.369Z,-2.08
2023-01-18T05:47:01.836Z,-2.11
2023-01-18T05:48:07.518Z,-2.16
2023-01-18T05:49:13.698Z,-2.10
2023-01-18T05:50:16.158Z,-2.08
2023-01-18T05:51:22.999Z,-2.14
2023-01-18T05:52:27.546Z,-2.13
2023-01-18T05:53:33.496Z,-2.17
2023-01-18T05:54:38.827Z,-2.22
2023-01-18T05:55:44.973Z,-2.19
2023-01-18T05:56:51.291Z,-2.25
2023-01-18T05:57:54.082Z,-2.15
2023-01-18T05:58:58.985Z,-2.18
2023-01-18T06:00:03.431Z,-2.21
2023-01-18T06:01:15.721Z,-2.21
2023-01-18T06:02:18.941Z,-2.12
2023-01-18T06:03:28.609Z,-2.20
2023-01-18T06:04:30.727Z,-2.13
2023-01-18T06:05:37.224Z,-2.13
2023-01-18T06:06:42.107Z,-2.12
2023-01-18T06:07:51.585Z,-2.11
2023-01-18T06:08:54.601Z,-2.22
2023-01-18T06:10:00.846Z,-2.17
2023-01-18T06:11:08.254Z,-2.15
2023-01-18T06:12:15.662Z,-2.16
2023-01-18T06:13:18.872Z,-2.19
2023-01-18T06:14:25.471Z,-2.23
2023-01-18T06:15:28.339Z,-2.14
2023-01-18T06:16:33.580Z,-2.28
2023-01-18T06:17:37.951Z,-2.34
2023-01-18T06:18:47.571Z,-2.29
2023-01-18T06:19:53.105Z,-2.22
2023-01-18T06:20:56.067Z,-2.20
2023-01-18T06:22:01.775Z,-2.24
2023-01-18T06:23:04.617Z,-2.28
2023-01-18T06:24:13.663Z,-2.31
2023-01-18T06:25:15.969Z,-2.15
2023-01-18T06:26:21.446Z,-2.18
2023-01-18T06:27:24.178Z,-2.30
2023-01-18T06:28:31.006Z,-2.28
2023-01-18T06:29:37.625Z,-2.28
2023-01-18T06:30:43.893Z,-2.31
2023-01-18T06:31:49.921Z,-2.27
2023-01-18T06:32:54.804Z,-2.30
2023-01-18T06:33:59.661Z,-2.24
2023-01-18T06:35:04.828Z,-2.27
2023-01-18T06:36:12.500Z,-2.29
2023-01-18T06:37:14.961Z,-2.28
2023-01-18T06:38:20.814Z,-2.27
2023-01-18T06:39:24.656Z,-2.31
2023-01-18T06:40:30.631Z,-2.31
2023-01-18T06:41:39.843Z,-2.35
2023-01-18T06:42:42.026Z,-2.27
2023-01-18T06:43:47.615Z,-2.25
2023-01-18T06:44:50.508Z,-2.25
2023-01-18T06:45:57.283Z,-2.29
2023-01-18T06:46:59.802Z,-2.20
2023-01-18T06:48:06.774Z,-2.16
2023-01-18T06:49:12.376Z,-2.20
2023-01-18T06:50:17.905Z,-2.15
2023-01-18T06:51:20.569Z,-2.16
2023-01-18T06:52:26.858Z,-2.16
2023-01-18T06:53:29.137Z,-2.14
2023-01-18T06:54:36.119Z,-2.12
2023-01-18T06:55:41.191Z,-2.15
2023-01-18T06:56:46.411Z,-2.32
2023-01-18T06:57:48.663Z,-2.24
2023-01-18T06:58:56.020Z,-2.24
2023-01-18T06:59:58.279Z,-2.15
2023-01-18T07:01:11.955Z,-2.15
2023-01-18T07:02:16.719Z,-2.14
2023-01-18T07:03:21.940Z,-2.15
2023-01-18T07:04:27.498Z,-2.15
2023-01-18T07:05:32.263Z,-2.09
2023-01-18T07:06:36.720Z,-2.09
2023-01-18T07:07:42.381Z,-2.09
2023-01-18T07:08:48.188Z,-2.10
2023-01-18T07:09:50.444Z,-2.09
2023-01-18T07:10:57.261Z,-2.19
2023-01-18T07:12:02.327Z,-2.15
2023-01-18T07:13:05.053Z,-2.10
2023-01-18T07:14:10.155Z,-2.17
2023-01-18T07:15:21.646Z,-2.18
2023-01-18T07:16:33.937Z,-2.21
2023-01-18T07:17:36.281Z,-2.33
2023-01-18T07:18:45.271Z,-2.35
2023-01-18T07:19:55.475Z,-2.32
2023-01-18T07:20:59.640Z,-2.25
2023-01-18T07:22:06.545Z,-2.26
2023-01-18T07:23:12.449Z,-2.39
2023-01-18T07:24:18.674Z,-2.26
2023-01-18T07:25:21.172Z,-2.31
2023-01-18T07:26:31.287Z,-2.28
2023-01-18T07:27:34.526Z,-2.30
2023-01-18T07:28:40.104Z,-2.38
2023-01-18T07:29:44.743Z,-2.45
2023-01-18T07:30:49.721Z,-2.46
2023-01-18T07:31:56.591Z,-2.42
2023-01-18T07:32:59.862Z,-2.49
2023-01-18T07:34:05.060Z,-2.56
2023-01-18T07:35:10.701Z,-2.55
2023-01-18T07:36:17.336Z,-2.54
2023-01-18T07:37:21.804Z,-2.49
2023-01-18T07:38:27.708Z,-2.56
2023-01-18T07:39:32.842Z,-2.60
2023-01-18T07:40:34.938Z,-2.60
2023-01-18T07:41:41.392Z,-2.62
2023-01-18T07:42:45.408Z,-2.64
2023-01-18T07:43:50.508Z,-2.63
2023-01-18T07:44:52.524Z,-2.61
2023-01-18T07:46:00.879Z,-2.57
2023-01-18T07:47:08.016Z,-2.65
2023-01-18T07:48:13.381Z,-2.59
2023-01-18T07:49:19.614Z,-2.52
2023-01-18T07:50:24.502Z,-2.50
2023-01-18T07:51:31.116Z,-2.48
2023-01-18T07:52:34.675Z,-2.53
2023-01-18T07:53:40.771Z,-2.47
2023-01-18T07:54:46.321Z,-2.51
2023-01-18T07:55:49.017Z,-2.47
2023-01-18T07:56:54.447Z,-2.49
2023-01-18T07:57:56.578Z,-2.48
2023-01-18T07:59:02.441Z,-2.44
2023-01-18T08:00:07.310Z,-2.51
2023-01-18T08:01:14.340Z,-2.42
2023-01-18T08:02:21.349Z,-2.43
2023-01-18T08:03:26.940Z,-2.48
2023-01-18T08:04:32.053Z,-2.44
2023-01-18T08:05:37.352Z,-2.39
2023-01-18T08:06:42.607Z,-2.43
2023-01-18T08:07:45.640Z,-2.42
2023-01-18T08:08:54.715Z,-2.40
2023-01-18T08:10:02.030Z,-2.36
2023-01-18T08:11:11.001Z,-2.34
2023-01-18T08:12:18.118Z,-2.28
2023-01-18T08:13:22.941Z,-2.30
2023-01-18T08:14:29.091Z,-2.38
2023-01-18T08:15:32.107Z,-2.34
2023-01-18T08:16:37.076Z,-2.28
2023-01-18T08:17:43.786Z,-2.36
2023-01-18T08:18:49.031Z,-2.29
2023-01-18T08:19:54.052Z,-2.27
2023-01-18T08:21:00.280Z,-2.35
2023-01-18T08:22:05.073Z,-2.22
2023-01-18T08:23:10.186Z,-2.14
2023-01-18T08:24:16.765Z,-2.02
2023-01-18T08:25:18.740Z,-1.97
2023-01-18T08:26:23.721Z,-2.07
2023-01-18T08:27:27.317Z,-2.20
2023-01-18T08:28:32.470Z,-2.22
2023-01-18T08:29:39.476Z,-2.11
2023-01-18T08:30:44.023Z,-2.10
2023-01-18T08:31:53.742Z,-2.11
2023-01-18T08:32:58.152Z,-2.20
2023-01-18T08:34:03.312Z,-2.15
2023-01-18T08:35:07.166Z,-2.08
2023-01-18T08:36:20.185Z,-2.05
2023-01-18T08:37:23.950Z,-2.08
2023-01-18T08:38:30.177Z,-2.04
2023-01-18T08:39:34.927Z,-1.98
2023-01-18T08:40:37.150Z,-1.85
2023-01-18T08:41:42.114Z,-1.90
2023-01-18T08:42:44.836Z,-1.93
2023-01-18T08:43:52.969Z,-1.97
2023-01-18T08:44:58.274Z,-2.05
2023-01-18T08:46:04.010Z,-1.86
2023-01-18T08:47:09.243Z,-1.90
2023-01-18T08:48:11.842Z,-1.94
2023-01-18T08:49:19.534Z,-1.87
2023-01-18T08:50:21.680Z,-1.74
2023-01-18T08:51:29.905Z,-1.89
2023-01-18T08:52:32.120Z,-1.71
2023-01-18T08:53:37.006Z,-1.66
2023-01-18T08:54:39.038Z,-1.59
2023-01-18T08:55:45.567Z,-1.51
2023-01-18T08:56:50.689Z,-1.40
2023-01-18T08:57:54.911Z,-1.38
2023-01-18T08:59:00.304Z,-1.49
2023-01-18T09:00:05.972Z,-1.60
2023-01-18T09:01:12.101Z,-1.55
2023-01-18T09:02:20.041Z,-1.59
2023-01-18T09:03:25.496Z,-1.62
2023-01-18T09:04:34.906Z,-1.67
2023-01-18T09:05:41.919Z,-1.73
2023-01-18T09:06:51.486Z,-1.79
2023-01-18T09:07:58.300Z,-1.62
2023-01-18T09:09:03.774Z,-1.53
2023-01-18T09:10:09.384Z,-1.74
2023-01-18T09:11:14.905Z,-1.69
2023-01-18T09:12:16.946Z,-1.70
2023-01-18T09:13:21.886Z,-2.03
2023-01-18T09:14:24.137Z,-1.98
2023-01-18T09:15:29.424Z,-1.98
2023-01-18T09:16:31.929Z,-1.98
2023-01-18T09:17:39.224Z,-1.93
2023-01-18T09:18:41.331Z,-1.90
2023-01-18T09:19:49.293Z,-1.88
2023-01-18T09:20:54.438Z,-1.71
2023-01-18T09:22:02.236Z,-1.84
2023-01-18T09:23:05.473Z,-1.86
2023-01-18T09:24:10.575Z,-1.83
2023-01-18T09:25:15.182Z,-1.75
2023-01-18T09:26:21.754Z,-1.88
2023-01-18T09:27:28.944Z,-1.95
2023-01-18T09:28:35.079Z,-1.87
2023-01-18T09:29:39.749Z,-1.85
2023-01-18T09:30:46.884Z,-1.95
2023-01-18T09:31:49.688Z,-1.87
2023-01-18T09:32:54.527Z,-1.95
2023-01-18T09:34:09.501Z,-1.98
2023-01-18T09:35:22.912Z,-2.02
2023-01-18T09:36:29.676Z,-2.08
2023-01-18T09:37:34.943Z,-2.29
2023-01-18T09:38:41.067Z,-2.44
2023-01-18T09:39:51.757Z,-2.33
2023-01-18T09:40:57.351Z,-2.27
2023-01-18T09:42:05.253Z,-2.18
2023-01-18T09:43:19.015Z,-2.21
2023-01-18T09:44:30.436Z,-2.09
2023-01-18T09:45:39.908Z,-2.05
2023-01-18T09:46:45.888Z,-2.14
2023-01-18T09:47:55.467Z,-2.10
2023-01-18T09:49:00.877Z,-1.94
2023-01-18T09:50:17.635Z,-2.02
2023-01-18T09:51:23.755Z,-2.26
2023-01-18T09:52:43.613Z,-2.12
2023-01-18T09:54:03.950Z,-2.12
2023-01-18T09:55:18.997Z,-2.09
2023-01-18T09:56:27.855Z,-2.06
2023-01-18T09:57:44.874Z,-1.87
2023-01-18T09:59:01.704Z,-1.86
2023-01-18T10:00:06.585Z,-1.92
2023-01-18T10:01:15.167Z,-1.89
2023-01-18T10:02:23.487Z,-1.94
2023-01-18T10:03:47.728Z,-1.90
2023-01-18T10:04:58.529Z,-1.82
2023-01-18T10:06:09.645Z,-1.68
2023-01-18T10:07:18.787Z,-1.72
2023-01-18T10:08:31.018Z,-1.77
2023-01-18T10:09:42.794Z,-1.87
2023-01-18T10:10:57.359Z,-1.79
2023-01-18T10:12:08.173Z,-1.77
2023-01-18T10:13:33.180Z,-1.92
2023-01-18T10:14:48.250Z,-2.05
2023-01-18T10:15:53.510Z,-1.98
2023-01-18T10:17:00.741Z,-1.99
2023-01-18T10:18:05.696Z,-1.95
2023-01-18T10:19:19.232Z,-2.10
2023-01-18T10:20:31.471Z,-1.97
2023-01-18T10:21:50.567Z,-2.12
2023-01-18T10:23:02.242Z,-2.16
2023-01-18T10:24:22.160Z,-2.32
2023-01-18T10:25:36.052Z,-2.15
2023-01-18T10:26:39.127Z,-2.25
2023-01-18T10:28:14.851Z,-2.18
2023-01-18T10:29:31.173Z,-2.32
2023-01-18T10:30:47.215Z,-2.37
2023-01-18T10:32:00.533Z,-2.36
2023-01-18T10:33:20.581Z,-2.34
2023-01-18T10:34:29.522Z,-2.23
2023-01-18T10:35:37.254Z,-2.35
2023-01-18T10:36:43.596Z,-2.27
2023-01-18T10:37:49.533Z,-2.27
2023-01-18T10:38:57.476Z,-2.32
2023-01-18T10:40:01.839Z,-2.20
2023-01-18T10:41:20.127Z,-2.26
2023-01-18T10:42:26.261Z,-2.21
2023-01-18T10:43:32.959Z,-1.97
2023-01-18T10:44:35.048Z,-1.87
2023-01-18T10:45:40.186Z,-1.84
2023-01-18T10:46:45.304Z,-1.65
2023-01-18T10:47:48.247Z,-1.57
2023-01-18T10:48:57.733Z,-1.42
2023-01-18T10:50:00.163Z,-1.21
2023-01-18T10:51:08.129Z,-1.08
2023-01-18T10:52:29.163Z,-1.04
2023-01-18T10:53:37.275Z,-1.62
2023-01-18T10:54:40.759Z,-1.74
2023-01-18T10:55:55.919Z,-1.77
2023-01-18T10:57:10.497Z,-1.75
2023-01-18T10:58:17.895Z,-1.78
2023-01-18T10:59:30.333Z,-1.82
2023-01-18T11:00:40.960Z,-1.73
2023-01-18T11:01:57.110Z,-1.64
2023-01-18T11:03:01.506Z,-1.50
2023-01-18T11:04:09.712Z,-1.64
2023-01-18T11:05:22.817Z,-1.56
2023-01-18T11:06:30.389Z,-1.58
2023-01-18T11:07:32.541Z,-1.71
2023-01-18T11:08:38.747Z,-1.55
2023-01-18T11:09:46.409Z,-1.53
2023-01-18T11:10:58.762Z,-1.53
2023-01-18T11:12:42.108Z,-1.72
2023-01-18T11:13:51.314Z,-1.51
2023-01-18T11:14:55.243Z,-1.46
2023-01-18T11:16:13.799Z,-1.49
2023-01-18T11:17:19.163Z,-1.31
2023-01-18T11:18:26.673Z,-1.27
2023-01-18T11:19:32.332Z,-1.30
2023-01-18T11:20:38.640Z,-1.26
2023-01-18T11:21:51.655Z,-1.27
2023-01-18T11:22:55.255Z,-1.44
2023-01-18T11:24:00.851Z,-1.58
2023-01-18T11:25:03.367Z,-1.71
2023-01-18T11:26:15.819Z,-1.58
2023-01-18T11:27:24.482Z,-1.76
2023-01-18T11:28:34.298Z,-1.65
2023-01-18T11:29:46.100Z,-1.77
2023-01-18T11:30:56.140Z,-1.74
2023-01-18T11:32:06.954Z,-1.80
2023-01-18T11:33:18.351Z,-1.96
2023-01-18T11:34:31.224Z,-1.83
2023-01-18T11:35:36.466Z,-1.86
2023-01-18T11:36:44.614Z,-1.61
2023-01-18T11:37:47.589Z,-1.63
2023-01-18T11:38:52.737Z,-1.64
2023-01-18T11:39:55.011Z,-1.53
2023-01-18T11:41:09.611Z,-1.54
2023-01-18T11:42:24.491Z,-1.57
2023-01-18T11:43:28.058Z,-1.58
2023-01-18T11:44:38.053Z,-1.48
2023-01-18T11:45:55.272Z,-1.51
2023-01-18T11:47:00.190Z,-1.67
2023-01-18T11:48:13.860Z,-1.52
2023-01-18T11:49:42.750Z,-1.32
2023-01-18T11:50:53.822Z,-1.46
2023-01-18T11:52:02.041Z,-1.52
2023-01-18T11:53:30.955Z,-1.68
2023-01-18T11:54:42.027Z,-1.62
2023-01-18T11:55:56.051Z,-1.65
2023-01-18T11:57:03.160Z,-1.55
2023-01-18T11:58:22.197Z,-1.64
2023-01-18T11:59:31.163Z,-1.41
2023-01-18T12:00:50.148Z,-1.24
2023-01-18T12:02:30.387Z,-1.59
2023-01-18T12:03:50.768Z,-1.36
2023-01-18T12:05:17.579Z,-1.32
2023-01-18T12:06:38.775Z,-1.31
2023-01-18T12:07:54.155Z,-1.45
2023-01-18T12:09:11.612Z,-1.28
2023-01-18T12:10:20.942Z,-1.52
2023-01-18T12:11:39.070Z,-1.43
2023-01-18T12:13:00.280Z,-1.47
2023-01-18T12:14:16.208Z,-1.85
2023-01-18T12:15:44.116Z,-1.75
2023-01-18T12:17:06.235Z,-1.58
2023-01-18T12:18:24.363Z,-1.63
2023-01-18T12:19:58.631Z,-1.69
2023-01-18T12:21:11.170Z,-1.52
2023-01-18T12:22:32.503Z,-1.45
2023-01-18T12:23:56.126Z,-1.44
2023-01-18T12:25:18.646Z,-1.41
2023-01-18T12:26:35.405Z,-1.71
2023-01-18T12:27:44.699Z,-1.55
2023-01-18T12:29:06.862Z,-1.42
2023-01-18T12:30:40.844Z,-1.32
2023-01-18T12:32:13.595Z,-1.38
2023-01-18T12:33:43.390Z,-1.43
2023-01-18T12:35:12.701Z,-1.20
2023-01-18T12:37:04.489Z,-1.51
2023-01-18T12:38:24.949Z,-1.32
2023-01-18T12:39:50.355Z,-1.25
2023-01-18T12:41:32.940Z,-1.37
2023-01-18T12:42:41.159Z,-1.40
2023-01-18T12:43:59.892Z,-1.35
2023-01-18T12:45:18.883Z,-1.35
2023-01-18T12:46:30.618Z,-1.27
2023-01-18T12:47:42.312Z,-1.32
2023-01-18T12:48:51.521Z,-1.39
2023-01-18T12:49:59.535Z,-1.60
2023-01-18T12:51:08.333Z,-1.72
2023-01-18T12:52:18.804Z,-1.54
2023-01-18T12:53:35.594Z,-1.70
2023-01-18T12:54:43.232Z,-1.75
2023-01-18T12:55:52.565Z,-1.82
2023-01-18T12:56:57.289Z,-1.83
2023-01-18T12:58:04.716Z,-1.92
2023-01-18T12:59:14.938Z,-1.80
2023-01-18T13:00:24.933Z,-1.90
2023-01-18T13:01:34.439Z,-1.76
2023-01-18T13:02:46.040Z,-1.77
2023-01-18T13:03:52.851Z,-1.84
2023-01-18T13:05:00.340Z,-2.01
2023-01-18T13:06:06.131Z,-1.96
2023-01-18T13:07:17.293Z,-2.12
2023-01-18T13:08:32.747Z,-2.14
2023-01-18T13:09:45.438Z,-2.20
2023-01-18T13:10:52.043Z,-2.18
2023-01-18T13:11:58.603Z,-2.26
2023-01-18T13:13:06.899Z,-2.23
2023-01-18T13:14:20.407Z,-2.18
2023-01-18T13:15:34.244Z,-2.15
2023-01-18T13:16:45.408Z,-2.25
2023-01-18T13:18:04.518Z,-2.42
2023-01-18T13:19:13.603Z,-2.31
2023-01-18T13:20:22.489Z,-2.34
2023-01-18T13:21:39.790Z,-2.23
2023-01-18T13:22:59.927Z,-2.31
2023-01-18T13:24:14.439Z,-2.27
2023-01-18T13:25:36.652Z,-2.29
2023-01-18T13:26:42.240Z,-2.31
2023-01-18T13:28:00.686Z,-2.32
2023-01-18T13:29:25.922Z,-2.35
2023-01-18T13:30:33.754Z,-2.45
2023-01-18T13:31:39.071Z,-2.48
2023-01-18T13:32:45.540Z,-2.47
2023-01-18T13:33:59.742Z,-2.47
2023-01-18T13:35:20.111Z,-2.35
2023-01-18T13:36:26.038Z,-2.25
2023-01-18T13:37:46.047Z,-2.22
2023-01-18T13:38:54.302Z,-2.19
2023-01-18T13:39:57.455Z,-2.21
2023-01-18T13:41:05.009Z,-2.10
2023-01-18T13:42:23.645Z,-2.08
2023-01-18T13:43:57.218Z,-2.06
2023-01-18T13:45:21.471Z,-2.21
2023-01-18T13:46:28.619Z,-2.19
2023-01-18T13:47:51.161Z,-2.36
2023-01-18T13:49:00.943Z,-2.34
2023-01-18T13:50:03.196Z,-2.26
2023-01-18T13:51:09.372Z,-2.34
2023-01-18T13:52:32.483Z,-2.15
2023-01-18T13:53:51.561Z,-2.32
2023-01-18T13:55:02.846Z,-2.35
2023-01-18T13:56:36.752Z,-2.36
2023-01-18T13:57:39.354Z,-2.48
2023-01-18T13:58:59.458Z,-2.54
2023-01-18T14:00:04.996Z,-2.46
2023-01-18T14:01:19.095Z,-2.42
2023-01-18T14:02:29.630Z,-2.38
2023-01-18T14:03:37.762Z,-2.25
2023-01-18T14:04:45.691Z,-2.39
2023-01-18T14:05:49.167Z,-2.38
2023-01-18T14:06:56.453Z,-2.21
2023-01-18T14:08:05.343Z,-2.21
2023-01-18T14:09:10.115Z,-2.26
2023-01-18T14:10:33.621Z,-2.20
2023-01-18T14:11:46.012Z,-2.26
2023-01-18T14:12:50.363Z,-2.25
2023-01-18T14:14:10.064Z,-2.35
2023-01-18T14:15:31.377Z,-2.34
2023-01-18T14:16:36.782Z,-2.32
2023-01-18T14:17:58.302Z,-2.31
2023-01-18T14:19:07.557Z,-2.34
2023-01-18T14:20:49.040Z,-2.15
2023-01-18T14:22:14.637Z,-2.33
2023-01-18T14:23:35.465Z,-2.29
2023-01-18T14:24:53.105Z,-2.30
2023-01-18T14:25:58.988Z,-2.29
2023-01-18T14:27:04.582Z,-2.37
2023-01-18T14:28:12.425Z,-2.37
2023-01-18T14:29:22.868Z,-2.25
2023-01-18T14:30:39.372Z,-2.34
2023-01-18T14:31:49.395Z,-2.31
2023-01-18T14:33:00.174Z,-2.28
2023-01-18T14:34:26.576Z,-2.28
2023-01-18T14:35:32.214Z,-2.18
2023-01-18T14:36:41.899Z,-2.15
2023-01-18T14:37:46.993Z,-2.21
2023-01-18T14:39:07.518Z,-2.32
2023-01-18T14:40:26.743Z,-2.34
2023-01-18T14:41:30.334Z,-2.34
2023-01-18T14:42:35.956Z,-2.37
2023-01-18T14:43:46.153Z,-2.36
2023-01-18T14:44:58.301Z,-2.30
2023-01-18T14:46:10.817Z,-2.33
2023-01-18T14:47:23.916Z,-2.28